createdAt,value
2019-02-15T00:01:16.008Z,958.1
2019-02-15T00:04:21.881Z,958.1
2019-02-15T00:07:27.879Z,958.2
2019-02-15T00:10:33.824Z,958.2
2019-02-15T00:13:39.707Z,958.2
2019-02-15T00:16:45.603Z,958.2
2019-02-15T00:19:51.601Z,958.2
2019-02-15T00:23:00.061Z,958.2
2019-02-15T00:26:06.051Z,958.1
2019-02-15T00:29:12.247Z,958.1
2019-02-15T00:32:18.172Z,958
2019-02-15T00:35:24.143Z,958
2019-02-15T00:38:30.003Z,958
2019-02-15T00:41:35.956Z,958.1
2019-02-15T00:44:44.827Z,958
2019-02-15T00:47:50.839Z,958
2019-02-15T00:50:56.726Z,958
2019-02-15T00:54:02.755Z,958
2019-02-15T00:57:08.630Z,958
2019-02-15T01:00:14.588Z,958
2019-02-15T01:03:20.640Z,958
2019-02-15T01:06:26.531Z,957.9
2019-02-15T01:09:32.561Z,958
2019-02-15T01:12:38.496Z,957.9
2019-02-15T01:15:44.511Z,958
2019-02-15T01:18:50.443Z,958
2019-02-15T01:21:56.335Z,957.9
2019-02-15T01:25:05.004Z,958
2019-02-15T01:28:11.133Z,958
2019-02-15T01:31:17.003Z,958.1
2019-02-15T01:34:23.003Z,958
2019-02-15T01:37:28.885Z,958.1
2019-02-15T01:40:34.821Z,958
2019-02-15T01:43:41.738Z,958.1
2019-02-15T01:46:47.688Z,958
2019-02-15T01:49:53.541Z,958
2019-02-15T01:52:59.581Z,957.9
2019-02-15T01:56:05.461Z,958
2019-02-15T01:59:11.498Z,958
2019-02-15T02:02:17.377Z,957.9
2019-02-15T02:05:23.313Z,957.9
2019-02-15T02:08:29.275Z,958
2019-02-15T02:11:37.774Z,958
2019-02-15T02:14:43.805Z,957.9
2019-02-15T02:17:49.675Z,957.8
2019-02-15T02:20:55.677Z,957.8
2019-02-15T02:24:01.630Z,957.8
2019-02-15T02:27:07.589Z,957.8
2019-02-15T02:30:13.717Z,957.8
2019-02-15T02:33:19.641Z,957.8
2019-02-15T02:36:25.782Z,957.7
2019-02-15T02:39:31.743Z,957.8
2019-02-15T02:42:37.820Z,957.8
2019-02-15T02:45:43.675Z,957.7
2019-02-15T02:48:49.616Z,957.8
2019-02-15T02:51:55.496Z,957.8
2019-02-15T02:55:01.591Z,957.8
2019-02-15T02:58:07.596Z,957.8
2019-02-15T03:01:13.567Z,957.8
2019-02-15T03:04:19.565Z,957.9
2019-02-15T03:07:25.400Z,957.9
2019-02-15T03:10:31.492Z,957.9
2019-02-15T03:13:37.449Z,958
2019-02-15T03:16:43.459Z,958
2019-02-15T03:19:49.420Z,957.9
2019-02-15T03:22:55.378Z,957.9
2019-02-15T03:26:01.490Z,957.9
2019-02-15T03:29:07.635Z,957.9
2019-02-15T03:32:13.624Z,957.9
2019-02-15T03:35:19.731Z,957.8
2019-02-15T03:38:25.696Z,957.9
2019-02-15T03:41:31.577Z,957.9
2019-02-15T03:44:37.615Z,957.9
2019-02-15T03:47:43.569Z,957.9
2019-02-15T03:50:49.568Z,958
2019-02-15T03:53:55.500Z,958
2019-02-15T03:57:01.561Z,958
2019-02-15T04:00:07.441Z,958
2019-02-15T04:03:13.477Z,958.1
2019-02-15T04:06:19.622Z,958
2019-02-15T04:09:25.605Z,958.1
2019-02-15T04:12:33.509Z,958
2019-02-15T04:15:39.672Z,958.1
2019-02-15T04:18:45.682Z,958.1
2019-02-15T04:21:51.643Z,958.2
2019-02-15T04:24:57.749Z,958.2
2019-02-15T04:28:04.127Z,958.2
2019-02-15T04:31:10.086Z,958.2
2019-02-15T04:34:16.036Z,958.3
2019-02-15T04:37:22.104Z,958.3
2019-02-15T04:40:28.090Z,958.3
2019-02-15T04:43:34.230Z,958.4
2019-02-15T04:46:40.117Z,958.4
2019-02-15T04:49:46.253Z,958.4
2019-02-15T04:52:52.208Z,958.4
2019-02-15T04:55:58.080Z,958.5
2019-02-15T04:59:04.027Z,958.5
2019-02-15T05:02:09.987Z,958.6
2019-02-15T05:05:16.065Z,958.5
2019-02-15T05:08:22.292Z,958.6
2019-02-15T05:11:28.235Z,958.7
2019-02-15T05:14:34.254Z,958.7
2019-02-15T05:17:40.302Z,958.8
2019-02-15T05:20:46.359Z,958.8
2019-02-15T05:23:52.327Z,958.8
2019-02-15T05:26:58.281Z,958.8
2019-02-15T05:30:04.341Z,958.9
2019-02-15T05:33:10.350Z,958.9
2019-02-15T05:36:16.364Z,958.9
2019-02-15T05:39:22.390Z,959
2019-02-15T05:42:28.481Z,959.1
2019-02-15T05:45:34.550Z,959.2
2019-02-15T05:48:40.586Z,959.2
2019-02-15T05:51:48.683Z,959.3
2019-02-15T05:54:54.578Z,959.3
2019-02-15T05:58:00.641Z,959.4
2019-02-15T06:01:06.855Z,959.4
2019-02-15T06:04:13.174Z,959.4
2019-02-15T06:07:19.132Z,959.4
2019-02-15T06:10:25.122Z,959.3
2019-02-15T06:13:31.564Z,959.3
2019-02-15T06:16:37.524Z,959.3
2019-02-15T06:19:43.441Z,959.3
2019-02-15T06:22:49.556Z,959.4
2019-02-15T06:25:55.698Z,959.5
2019-02-15T06:29:01.991Z,959.6
2019-02-15T06:32:07.922Z,959.5
2019-02-15T06:35:13.908Z,959.6
2019-02-15T06:38:19.970Z,959.6
2019-02-15T06:41:26.052Z,959.8
2019-02-15T06:44:32.292Z,959.9
2019-02-15T06:47:38.359Z,959.8
2019-02-15T06:50:44.312Z,959.8
2019-02-15T06:53:50.289Z,959.8
2019-02-15T06:56:57.367Z,959.7
2019-02-15T07:00:03.244Z,959.7
2019-02-15T07:03:09.163Z,959.8
2019-02-15T07:06:15.236Z,959.8
2019-02-15T07:09:21.199Z,959.8
2019-02-15T07:12:27.158Z,959.9
2019-02-15T07:15:35.277Z,959.8
2019-02-15T07:18:41.232Z,959.7
2019-02-15T07:21:47.119Z,959.8
2019-02-15T07:24:53.046Z,959.9
2019-02-15T07:27:59.004Z,959.9
2019-02-15T07:31:04.885Z,959.9
2019-02-15T07:34:10.807Z,959.9
2019-02-15T07:37:16.787Z,959.9
2019-02-15T07:40:25.922Z,959.9
2019-02-15T07:43:31.902Z,959.8
2019-02-15T07:46:37.851Z,959.7
2019-02-15T07:49:44.731Z,959.7
2019-02-15T07:52:53.043Z,959.7
2019-02-15T07:55:58.922Z,959.8
2019-02-15T07:59:04.959Z,959.7
2019-02-15T08:02:11.023Z,959.7
2019-02-15T08:05:17.000Z,959.8
2019-02-15T08:08:25.204Z,959.8
2019-02-15T08:11:31.063Z,959.8
2019-02-15T08:14:37.115Z,959.8
2019-02-15T08:17:42.990Z,959.9
2019-02-15T08:20:49.283Z,959.9
2019-02-15T08:23:55.303Z,959.9
2019-02-15T08:27:01.261Z,959.9
2019-02-15T08:30:07.371Z,960
2019-02-15T08:33:13.280Z,960.1
2019-02-15T08:36:19.252Z,960.1
2019-02-15T08:39:25.309Z,960.1
2019-02-15T08:42:31.234Z,960.1
2019-02-15T08:45:37.119Z,960.2
2019-02-15T08:48:47.594Z,960.2
2019-02-15T08:51:53.480Z,960.1
2019-02-15T08:54:59.604Z,960.2
2019-02-15T08:58:05.670Z,960.2
2019-02-15T09:01:13.768Z,960.3
2019-02-15T09:04:19.744Z,960.3
2019-02-15T09:07:25.829Z,960.3
2019-02-15T09:10:31.869Z,960.2
2019-02-15T09:13:40.852Z,960.2
2019-02-15T09:16:46.971Z,960.3
2019-02-15T09:19:53.227Z,960.3
2019-02-15T09:22:59.289Z,960.2
2019-02-15T09:26:08.292Z,960.4
2019-02-15T09:29:23.407Z,960.4
2019-02-15T09:32:30.217Z,960.3
2019-02-15T09:35:36.492Z,960.3
2019-02-15T09:38:42.511Z,960.3
2019-02-15T09:41:48.612Z,960.4
2019-02-15T09:44:54.555Z,960.4
2019-02-15T09:48:00.590Z,960.4
2019-02-15T09:51:06.467Z,960.4
2019-02-15T09:54:12.518Z,960.4
2019-02-15T09:57:18.616Z,960.4
2019-02-15T10:00:24.524Z,960.3
2019-02-15T10:03:30.442Z,960.3
2019-02-15T10:06:36.496Z,960.3
2019-02-15T10:09:42.514Z,960.3
2019-02-15T10:12:48.619Z,960.3
2019-02-15T10:15:54.529Z,960.3
2019-02-15T10:19:00.593Z,960.3
2019-02-15T10:22:06.552Z,960.3
2019-02-15T10:25:16.917Z,960.3
2019-02-15T10:28:22.879Z,960.4
2019-02-15T10:31:28.836Z,960.4
2019-02-15T10:34:34.844Z,960.4
2019-02-15T10:37:40.705Z,960.5
2019-02-15T10:40:46.739Z,960.5
2019-02-15T10:43:53.698Z,960.5
2019-02-15T10:46:59.577Z,960.4
2019-02-15T10:50:06.445Z,960.5
2019-02-15T10:53:12.389Z,960.6
2019-02-15T10:56:18.381Z,960.6
2019-02-15T10:59:24.564Z,960.5
2019-02-15T11:02:31.589Z,960.6
2019-02-15T11:05:37.683Z,960.5
2019-02-15T11:08:43.647Z,960.6
2019-02-15T11:11:49.692Z,960.6
2019-02-15T11:14:55.722Z,960.7
2019-02-15T11:18:01.829Z,960.7
2019-02-15T11:21:07.895Z,960.7
2019-02-15T11:24:13.978Z,960.8
2019-02-15T11:27:20.283Z,960.7
2019-02-15T11:30:26.385Z,960.7
2019-02-15T11:33:32.285Z,960.7
2019-02-15T11:36:38.409Z,960.7
2019-02-15T11:39:44.472Z,960.6
2019-02-15T11:42:50.430Z,960.6
2019-02-15T11:45:57.483Z,960.6
2019-02-15T11:49:03.624Z,960.7
2019-02-15T11:52:09.566Z,960.7
2019-02-15T11:55:15.557Z,960.7
2019-02-15T11:58:21.616Z,960.7
2019-02-15T12:01:27.517Z,960.7
2019-02-15T12:04:33.535Z,960.7
2019-02-15T12:07:42.305Z,960.7
2019-02-15T12:10:48.189Z,960.8
2019-02-15T12:13:54.130Z,960.8
2019-02-15T12:17:06.922Z,960.8
2019-02-15T12:20:12.908Z,960.9
2019-02-15T12:23:20.975Z,960.7
2019-02-15T12:26:27.461Z,960.8
2019-02-15T12:29:33.509Z,960.7
2019-02-15T12:32:39.670Z,960.7
2019-02-15T12:35:45.634Z,960.7
2019-02-15T12:38:51.789Z,960.7
2019-02-15T12:41:57.869Z,960.6
2019-02-15T12:45:04.198Z,960.6
2019-02-15T12:48:10.073Z,960.6
2019-02-15T12:51:16.090Z,960.6
2019-02-15T12:54:22.215Z,960.7
2019-02-15T12:57:28.321Z,960.7
2019-02-15T13:00:34.641Z,960.6
2019-02-15T13:03:40.590Z,960.6
2019-02-15T13:06:48.113Z,960.6
2019-02-15T13:09:55.253Z,960.6
2019-02-15T13:13:01.471Z,960.6
2019-02-15T13:16:07.558Z,960.7
2019-02-15T13:19:13.577Z,960.7
2019-02-15T13:22:21.494Z,960.7
2019-02-15T13:25:37.276Z,960.6
2019-02-15T13:28:43.465Z,960.7
2019-02-15T13:31:49.374Z,960.6
2019-02-15T13:34:55.395Z,960.6
2019-02-15T13:38:01.943Z,960.6
2019-02-15T13:41:08.569Z,960.7
2019-02-15T13:44:14.433Z,960.8
2019-02-15T13:47:22.797Z,960.8
2019-02-15T13:50:38.879Z,960.8
2019-02-15T13:53:45.159Z,960.8
2019-02-15T13:56:51.625Z,960.8
2019-02-15T13:59:57.733Z,960.8
2019-02-15T14:03:03.987Z,960.8
2019-02-15T14:06:11.996Z,960.9
2019-02-15T14:09:18.058Z,960.8
2019-02-15T14:12:23.978Z,960.8
2019-02-15T14:15:29.986Z,960.7
2019-02-15T14:18:35.859Z,960.8
2019-02-15T14:21:45.818Z,960.7
2019-02-15T14:24:52.195Z,960.6
2019-02-15T14:27:58.252Z,960.6
2019-02-15T14:31:05.233Z,960.6
2019-02-15T14:34:11.297Z,960.5
2019-02-15T14:37:17.329Z,960.7
2019-02-15T14:40:23.588Z,960.6
2019-02-15T14:43:29.655Z,960.6
2019-02-15T14:46:36.540Z,960.6
2019-02-15T14:49:42.672Z,960.6
2019-02-15T14:52:48.963Z,960.7
2019-02-15T14:55:55.133Z,960.8
2019-02-15T14:59:01.135Z,960.8
2019-02-15T15:02:07.150Z,960.8
2019-02-15T15:05:13.214Z,960.8
2019-02-15T15:08:19.280Z,960.7
2019-02-15T15:11:25.237Z,960.7
2019-02-15T15:14:31.199Z,960.6
2019-02-15T15:17:37.372Z,960.7
2019-02-15T15:20:43.421Z,960.7
2019-02-15T15:23:49.689Z,960.7
2019-02-15T15:26:55.649Z,960.6
2019-02-15T15:30:01.782Z,960.8
2019-02-15T15:33:07.788Z,960.7
2019-02-15T15:36:13.837Z,960.7
2019-02-15T15:39:22.048Z,960.8
2019-02-15T15:42:27.930Z,960.9
2019-02-15T15:45:33.915Z,960.9
2019-02-15T15:48:39.932Z,960.8
2019-02-15T15:51:45.809Z,961
2019-02-15T15:54:51.848Z,960.9
2019-02-15T15:57:57.808Z,961
2019-02-15T16:01:06.067Z,961
2019-02-15T16:04:11.945Z,961
2019-02-15T16:07:18.043Z,961.1
2019-02-15T16:10:24.002Z,961.1
2019-02-15T16:13:29.944Z,961.1
2019-02-15T16:16:35.932Z,961.2
2019-02-15T16:19:50.553Z,961.3
2019-02-15T16:22:56.547Z,961.3
2019-02-15T16:26:02.552Z,961.3
2019-02-15T16:29:08.566Z,961.3
2019-02-15T16:32:17.096Z,961.4
2019-02-15T16:35:23.096Z,961.4
2019-02-15T16:38:29.111Z,961.5
2019-02-15T16:41:35.002Z,961.5
2019-02-15T16:44:41.075Z,961.6
2019-02-15T16:47:47.038Z,961.7
2019-02-15T16:50:53.057Z,961.7
2019-02-15T16:53:59.112Z,961.7
2019-02-15T16:57:05.073Z,961.8
2019-02-15T17:00:11.205Z,961.8
2019-02-15T17:03:17.235Z,961.8
2019-02-15T17:06:24.601Z,961.9
2019-02-15T17:09:30.654Z,962
2019-02-15T17:12:36.553Z,962.1
2019-02-15T17:15:42.583Z,962.1
2019-02-15T17:18:53.386Z,962.1
2019-02-15T17:21:59.443Z,962.1
2019-02-15T17:25:05.573Z,962.2
2019-02-15T17:28:12.251Z,962.1
2019-02-15T17:31:18.320Z,962.1
2019-02-15T17:34:24.307Z,962.2
2019-02-15T17:37:30.194Z,962.2
2019-02-15T17:40:36.223Z,962.2
2019-02-15T17:43:42.288Z,962.2
2019-02-15T17:46:48.368Z,962.2
2019-02-15T17:49:54.321Z,962.1
2019-02-15T17:53:00.267Z,962.2
2019-02-15T17:56:06.196Z,962.2
2019-02-15T17:59:12.208Z,962.1
2019-02-15T18:02:18.094Z,962.1
2019-02-15T18:05:24.108Z,962.3
2019-02-15T18:08:32.018Z,962.2
2019-02-15T18:11:38.054Z,962.3
2019-02-15T18:14:44.005Z,962.3
2019-02-15T18:17:50.066Z,962.2
2019-02-15T18:20:55.951Z,962.3
2019-02-15T18:24:02.039Z,962.2
2019-02-15T18:27:10.330Z,962.3
2019-02-15T18:30:16.390Z,962.3
2019-02-15T18:33:22.492Z,962.3
2019-02-15T18:36:28.409Z,962.3
2019-02-15T18:39:34.551Z,962.3
2019-02-15T18:42:40.448Z,962.3
2019-02-15T18:45:46.364Z,962.4
2019-02-15T18:48:52.430Z,962.5
2019-02-15T18:51:58.392Z,962.5
2019-02-15T18:55:04.454Z,962.4
2019-02-15T18:58:10.431Z,962.4
2019-02-15T19:01:16.475Z,962.4
2019-02-15T19:04:22.363Z,962.4
2019-02-15T19:07:30.964Z,962.4
2019-02-15T19:10:36.833Z,962.3
2019-02-15T19:13:42.887Z,962.4
2019-02-15T19:16:48.962Z,962.5
2019-02-15T19:19:54.919Z,962.5
2019-02-15T19:23:00.906Z,962.4
2019-02-15T19:26:07.073Z,962.5
2019-02-15T19:29:13.217Z,962.4
2019-02-15T19:32:19.087Z,962.4
2019-02-15T19:35:25.101Z,962.5
2019-02-15T19:38:33.803Z,962.4
2019-02-15T19:41:39.797Z,962.5
2019-02-15T19:44:45.720Z,962.4
2019-02-15T19:47:51.721Z,962.4
2019-02-15T19:50:57.676Z,962.4
2019-02-15T19:54:03.683Z,962.4
2019-02-15T19:57:09.558Z,962.3
2019-02-15T20:00:15.559Z,962.4
2019-02-15T20:03:21.511Z,962.3
2019-02-15T20:06:27.396Z,962.3
2019-02-15T20:09:33.444Z,962.3
2019-02-15T20:12:39.505Z,962.3
2019-02-15T20:15:45.460Z,962.3
2019-02-15T20:18:51.513Z,962.4
2019-02-15T20:21:57.473Z,962.3
2019-02-15T20:25:03.540Z,962.2
2019-02-15T20:28:15.283Z,962.2
2019-02-15T20:31:21.264Z,962.2
2019-02-15T20:34:27.115Z,962.2
2019-02-15T20:37:33.111Z,962.2
2019-02-15T20:40:39.068Z,962.2
2019-02-15T20:43:45.140Z,962.3
2019-02-15T20:46:51.017Z,962.3
2019-02-15T20:49:59.405Z,962.3
2019-02-15T20:53:05.367Z,962.2
2019-02-15T20:56:11.324Z,962.2
2019-02-15T20:59:17.288Z,962.3
2019-02-15T21:02:23.245Z,962.3
2019-02-15T21:05:29.310Z,962.3
2019-02-15T21:08:35.206Z,962.3
2019-02-15T21:11:41.229Z,962.4
2019-02-15T21:14:47.398Z,962.4
2019-02-15T21:17:53.578Z,962.3
2019-02-15T21:20:59.518Z,962.5
2019-02-15T21:24:05.400Z,962.5
2019-02-15T21:27:11.385Z,962.5
2019-02-15T21:30:17.456Z,962.4
2019-02-15T21:33:23.464Z,962.4
2019-02-15T21:36:29.530Z,962.5
2019-02-15T21:39:35.601Z,962.5
2019-02-15T21:42:44.617Z,962.5
2019-02-15T21:45:50.679Z,962.6
2019-02-15T21:48:56.770Z,962.5
2019-02-15T21:52:02.699Z,962.5
2019-02-15T21:55:08.586Z,962.5
2019-02-15T21:58:14.476Z,962.5
2019-02-15T22:01:20.407Z,962.5
2019-02-15T22:04:26.468Z,962.5
2019-02-15T22:07:32.401Z,962.5
2019-02-15T22:10:38.357Z,962.5
2019-02-15T22:13:44.321Z,962.4
2019-02-15T22:16:50.381Z,962.4
2019-02-15T22:19:58.040Z,962.4
2019-02-15T22:23:04.451Z,962.4
2019-02-15T22:26:10.412Z,962.4
2019-02-15T22:29:16.296Z,962.5
2019-02-15T22:32:22.329Z,962.4
2019-02-15T22:35:28.393Z,962.5
2019-02-15T22:38:34.352Z,962.5
2019-02-15T22:41:40.313Z,962.5
2019-02-15T22:44:46.186Z,962.6
2019-02-15T22:47:52.345Z,962.5
2019-02-15T22:51:00.960Z,962.5
2019-02-15T22:54:06.832Z,962.4
2019-02-15T22:57:12.885Z,962.4
2019-02-15T23:00:18.751Z,962.5
2019-02-15T23:03:24.704Z,962.4
2019-02-15T23:06:30.579Z,962.4
2019-02-15T23:09:36.628Z,962.4
2019-02-15T23:12:42.587Z,962.4
2019-02-15T23:15:48.669Z,962.4
2019-02-15T23:18:54.627Z,962.4
2019-02-15T23:22:00.559Z,962.4
2019-02-15T23:25:06.577Z,962.4
2019-02-15T23:28:12.507Z,962.4
2019-02-15T23:31:18.441Z,962.4
2019-02-15T23:34:24.324Z,962.3
2019-02-15T23:37:30.259Z,962.3
2019-02-15T23:40:36.215Z,962.3
2019-02-15T23:43:42.205Z,962.4
2019-02-15T23:46:48.136Z,962.4
2019-02-15T23:49:54.107Z,962.4
2019-02-15T23:53:00.055Z,962.4
2019-02-15T23:56:05.963Z,962.5
2019-02-15T23:59:11.977Z,962.4
